createdAt,value
2023-02-19T00:01:17.349Z,6.68
2023-02-19T00:03:49.012Z,6.93
2023-02-19T00:06:16.350Z,6.25
2023-02-19T00:08:43.460Z,7.10
2023-02-19T00:11:12.718Z,6.78
2023-02-19T00:13:40.538Z,6.40
2023-02-19T00:16:11.875Z,6.05
2023-02-19T00:18:39.158Z,6.97
2023-02-19T00:21:06.510Z,6.22
2023-02-19T00:23:33.860Z,6.57
2023-02-19T00:26:17.612Z,6.35
2023-02-19T00:28:46.389Z,6.55
2023-02-19T00:31:17.821Z,6.78
2023-02-19T00:33:45.424Z,5.97
2023-02-19T00:36:12.942Z,6.35
2023-02-19T00:38:41.060Z,6.45
2023-02-19T00:41:21.390Z,6.20
2023-02-19T00:43:52.649Z,6.60
2023-02-19T00:46:24.267Z,6.00
2023-02-19T00:48:52.627Z,6.80
2023-02-19T00:51:20.254Z,6.95
2023-02-19T00:53:47.425Z,6.80
2023-02-19T00:56:14.747Z,6.53
2023-02-19T00:58:42.228Z,6.40
2023-02-19T01:01:10.084Z,6.53
2023-02-19T01:03:37.641Z,6.40
2023-02-19T01:06:05.600Z,6.35
2023-02-19T01:08:33.250Z,5.82
2023-02-19T01:11:00.797Z,6.07
2023-02-19T01:13:31.326Z,6.38
2023-02-19T01:16:09.327Z,6.38
2023-02-19T01:18:36.737Z,6.47
2023-02-19T01:21:11.181Z,6.65
2023-02-19T01:23:38.654Z,6.38
2023-02-19T01:26:09.892Z,6.20
2023-02-19T01:28:37.297Z,6.25
2023-02-19T01:31:05.045Z,6.22
2023-02-19T01:33:32.467Z,6.13
2023-02-19T01:35:59.631Z,6.07
2023-02-19T01:38:26.779Z,6.32
2023-02-19T01:40:57.653Z,7.03
2023-02-19T01:43:25.074Z,5.50
2023-02-19T01:45:52.596Z,6.85
2023-02-19T01:48:21.861Z,6.85
2023-02-19T01:50:51.566Z,5.97
2023-02-19T01:53:20.675Z,5.45
2023-02-19T01:55:48.993Z,5.78
2023-02-19T01:58:17.188Z,6.05
2023-02-19T02:00:44.389Z,6.35
2023-02-19T02:03:11.796Z,6.22
2023-02-19T02:05:47.143Z,5.82
2023-02-19T02:08:34.205Z,6.13
2023-02-19T02:11:01.343Z,6.53
2023-02-19T02:13:28.885Z,5.63
2023-02-19T02:16:08.254Z,5.70
2023-02-19T02:18:40.582Z,6.07
2023-02-19T02:21:18.994Z,5.50
2023-02-19T02:24:01.629Z,6.07
2023-02-19T02:26:28.773Z,5.78
2023-02-19T02:29:14.746Z,5.18
2023-02-19T02:31:43.063Z,5.50
2023-02-19T02:34:10.190Z,5.55
2023-02-19T02:36:38.950Z,5.75
2023-02-19T02:39:08.731Z,4.97
2023-02-19T02:41:35.906Z,5.90
2023-02-19T02:44:03.018Z,5.63
2023-02-19T02:46:35.005Z,5.03
2023-02-19T02:49:11.565Z,5.35
2023-02-19T02:51:51.202Z,5.75
2023-02-19T02:54:43.198Z,5.20
2023-02-19T02:57:14.661Z,6.10
2023-02-19T02:59:42.345Z,6.22
2023-02-19T03:02:19.090Z,5.78
2023-02-19T03:05:11.240Z,5.53
2023-02-19T03:07:46.824Z,5.43
2023-02-19T03:10:28.011Z,5.93
2023-02-19T03:13:15.419Z,6.15
2023-02-19T03:16:20.032Z,5.30
2023-02-19T03:19:07.684Z,5.30
2023-02-19T03:21:36.265Z,5.88
2023-02-19T03:24:23.110Z,5.88
2023-02-19T03:26:53.941Z,5.53
2023-02-19T03:29:26.080Z,5.75
2023-02-19T03:31:55.780Z,5.90
2023-02-19T03:34:26.141Z,5.15
2023-02-19T03:36:56.390Z,6.18
2023-02-19T03:39:24.252Z,5.78
2023-02-19T03:41:54.877Z,6.32
2023-02-19T03:44:26.154Z,5.50
2023-02-19T03:47:03.558Z,5.93
2023-02-19T03:49:35.971Z,6.05
2023-02-19T03:52:15.253Z,5.75
2023-02-19T03:54:47.589Z,5.85
2023-02-19T03:57:14.918Z,5.55
2023-02-19T03:59:42.029Z,4.85
2023-02-19T04:02:12.276Z,5.30
2023-02-19T04:04:45.998Z,6.35
2023-02-19T04:07:13.294Z,5.18
2023-02-19T04:09:42.444Z,5.38
2023-02-19T04:12:10.283Z,5.10
2023-02-19T04:14:40.578Z,5.35
2023-02-19T04:17:12.003Z,4.63
2023-02-19T04:19:40.922Z,5.35
2023-02-19T04:22:08.935Z,5.38
2023-02-19T04:24:39.164Z,5.25
2023-02-19T04:27:06.968Z,5.10
2023-02-19T04:29:34.146Z,5.15
2023-02-19T04:32:01.438Z,5.30
2023-02-19T04:34:28.642Z,4.95
2023-02-19T04:36:55.838Z,4.47
2023-02-19T04:39:23.021Z,6.07
2023-02-19T04:41:50.156Z,5.03
2023-02-19T04:44:17.317Z,4.60
2023-02-19T04:46:44.508Z,5.55
2023-02-19T04:49:11.663Z,4.95
2023-02-19T04:51:39.367Z,4.72
2023-02-19T04:54:06.803Z,5.32
2023-02-19T04:56:34.053Z,5.25
2023-02-19T04:59:01.192Z,4.97
2023-02-19T05:01:28.406Z,4.93
2023-02-19T05:03:55.587Z,5.10
2023-02-19T05:06:22.702Z,5.13
2023-02-19T05:08:49.891Z,5.07
2023-02-19T05:11:17.124Z,5.18
2023-02-19T05:13:44.315Z,5.15
2023-02-19T05:16:16.223Z,4.50
2023-02-19T05:18:44.338Z,5.07
2023-02-19T05:21:12.308Z,4.55
2023-02-19T05:23:39.875Z,4.65
2023-02-19T05:26:08.212Z,6.43
2023-02-19T05:28:35.342Z,4.57
2023-02-19T05:31:05.529Z,4.97
2023-02-19T05:33:33.089Z,5.10
2023-02-19T05:36:00.292Z,4.70
2023-02-19T05:38:27.484Z,4.88
2023-02-19T05:40:54.648Z,4.47
2023-02-19T05:43:21.804Z,4.25
2023-02-19T05:45:49.070Z,4.68
2023-02-19T05:48:16.272Z,4.68
2023-02-19T05:50:43.428Z,4.72
2023-02-19T05:53:10.544Z,4.65
2023-02-19T05:55:37.733Z,5.07
2023-02-19T05:58:05.163Z,4.75
2023-02-19T06:00:33.990Z,4.75
2023-02-19T06:03:01.575Z,4.68
2023-02-19T06:05:28.713Z,4.40
2023-02-19T06:07:55.890Z,4.53
2023-02-19T06:10:23.097Z,4.43
2023-02-19T06:12:53.357Z,4.43
2023-02-19T06:15:20.819Z,4.88
2023-02-19T06:17:48.142Z,4.88
2023-02-19T06:20:15.661Z,4.63
2023-02-19T06:22:42.898Z,4.55
2023-02-19T06:25:12.578Z,4.53
2023-02-19T06:27:40.084Z,4.55
2023-02-19T06:30:07.590Z,4.80
2023-02-19T06:32:34.781Z,4.00
2023-02-19T06:35:01.959Z,4.25
2023-02-19T06:37:29.738Z,3.95
2023-02-19T06:39:56.988Z,4.30
2023-02-19T06:42:24.161Z,4.70
2023-02-19T06:44:51.342Z,4.88
2023-02-19T06:47:18.564Z,5.05
2023-02-19T06:49:45.677Z,4.45
2023-02-19T06:52:12.843Z,4.30
2023-02-19T06:54:40.101Z,5.10
2023-02-19T06:57:07.227Z,4.15
2023-02-19T06:59:34.345Z,6.40
2023-02-19T07:02:01.519Z,6.00
2023-02-19T07:04:28.799Z,7.78
2023-02-19T07:06:56.041Z,7.35
2023-02-19T07:09:25.380Z,8.75
2023-02-19T07:11:52.547Z,10.00
2023-02-19T07:14:20.857Z,9.95
2023-02-19T07:16:48.067Z,8.25
2023-02-19T07:19:15.621Z,8.10
2023-02-19T07:21:43.172Z,8.10
2023-02-19T07:24:10.923Z,7.03
2023-02-19T07:26:38.070Z,7.03
2023-02-19T07:29:05.313Z,7.95
2023-02-19T07:31:32.605Z,8.05
2023-02-19T07:33:59.806Z,8.43
2023-02-19T07:36:26.943Z,8.00
2023-02-19T07:38:55.363Z,8.10
2023-02-19T07:41:22.822Z,8.07
2023-02-19T07:43:50.052Z,7.82
2023-02-19T07:46:17.500Z,7.05
2023-02-19T07:48:44.792Z,9.95
2023-02-19T07:51:20.632Z,9.10
2023-02-19T07:53:50.193Z,7.50
2023-02-19T07:56:17.691Z,8.27
2023-02-19T07:58:46.227Z,7.50
2023-02-19T08:01:18.369Z,7.18
2023-02-19T08:03:45.867Z,8.10
2023-02-19T08:06:13.445Z,8.40
2023-02-19T08:08:41.037Z,7.63
2023-02-19T08:11:27.022Z,8.27
2023-02-19T08:13:54.394Z,8.05
2023-02-19T08:16:36.784Z,8.02
2023-02-19T08:19:08.171Z,8.35
2023-02-19T08:21:35.320Z,7.38
2023-02-19T08:24:02.626Z,7.90
2023-02-19T08:26:29.803Z,7.88
2023-02-19T08:28:58.969Z,6.93
2023-02-19T08:31:26.966Z,7.63
2023-02-19T08:33:54.114Z,7.60
2023-02-19T08:36:21.261Z,7.63
2023-02-19T08:38:48.375Z,8.20
2023-02-19T08:41:15.544Z,8.32
2023-02-19T08:43:43.009Z,8.00
2023-02-19T08:46:11.243Z,8.23
2023-02-19T08:48:39.123Z,8.30
2023-02-19T08:51:08.600Z,8.27
2023-02-19T08:53:36.971Z,8.32
2023-02-19T08:56:22.403Z,8.68
2023-02-19T08:58:49.510Z,7.18
2023-02-19T09:01:18.757Z,8.57
2023-02-19T09:03:46.236Z,7.53
2023-02-19T09:06:17.646Z,8.32
2023-02-19T09:08:44.959Z,7.57
2023-02-19T09:11:12.440Z,7.63
2023-02-19T09:13:39.803Z,7.78
2023-02-19T09:16:07.167Z,8.65
2023-02-19T09:18:34.625Z,7.00
2023-02-19T09:21:05.612Z,7.55
2023-02-19T09:23:37.437Z,7.60
2023-02-19T09:26:08.524Z,7.10
2023-02-19T09:28:36.109Z,7.65
2023-02-19T09:31:06.717Z,8.13
2023-02-19T09:33:34.067Z,7.93
2023-02-19T09:36:01.676Z,7.40
2023-02-19T09:38:30.265Z,7.43
2023-02-19T09:40:58.062Z,8.00
2023-02-19T09:43:27.250Z,7.57
2023-02-19T09:46:01.686Z,6.75
2023-02-19T09:48:29.003Z,6.90
2023-02-19T09:50:57.558Z,7.40
2023-02-19T09:53:27.371Z,7.28
2023-02-19T09:55:54.978Z,7.18
2023-02-19T09:58:22.246Z,7.13
2023-02-19T10:00:50.267Z,7.13
2023-02-19T10:03:23.564Z,7.13
2023-02-19T10:05:50.729Z,6.97
2023-02-19T10:08:19.676Z,6.78
2023-02-19T10:10:46.922Z,7.32
2023-02-19T10:13:19.461Z,6.93
2023-02-19T10:15:51.352Z,7.75
2023-02-19T10:18:21.818Z,6.80
2023-02-19T10:20:50.159Z,6.78
2023-02-19T10:23:17.553Z,6.25
2023-02-19T10:25:54.388Z,7.03
2023-02-19T10:28:23.722Z,7.07
2023-02-19T10:30:54.754Z,6.85
2023-02-19T10:33:22.335Z,6.43
2023-02-19T10:35:54.616Z,7.47
2023-02-19T10:38:23.831Z,7.32
2023-02-19T10:40:53.208Z,6.32
2023-02-19T10:43:25.696Z,7.65
2023-02-19T10:45:53.074Z,6.65
2023-02-19T10:48:24.928Z,6.90
2023-02-19T10:50:58.177Z,7.65
2023-02-19T10:53:40.643Z,7.65
2023-02-19T10:56:08.654Z,7.18
2023-02-19T10:58:38.079Z,7.65
2023-02-19T11:01:14.362Z,6.85
2023-02-19T11:03:42.287Z,6.82
2023-02-19T11:06:11.236Z,6.78
2023-02-19T11:08:44.525Z,7.38
2023-02-19T11:11:21.942Z,7.18
2023-02-19T11:13:49.128Z,8.10
2023-02-19T11:16:16.419Z,6.55
2023-02-19T11:18:45.153Z,6.38
2023-02-19T11:21:33.487Z,8.00
2023-02-19T11:24:03.106Z,6.68
2023-02-19T11:26:32.778Z,6.65
2023-02-19T11:29:01.135Z,6.07
2023-02-19T11:31:28.749Z,6.85
2023-02-19T11:34:00.432Z,6.50
2023-02-19T11:36:29.970Z,8.10
2023-02-19T11:38:58.655Z,6.75
2023-02-19T11:41:25.758Z,7.60
2023-02-19T11:43:52.837Z,7.25
2023-02-19T11:46:25.526Z,7.28
2023-02-19T11:48:54.896Z,7.35
2023-02-19T11:51:57.377Z,7.90
2023-02-19T11:54:36.812Z,7.35
2023-02-19T11:57:16.549Z,7.80
2023-02-19T11:59:43.699Z,9.75
2023-02-19T12:02:28.107Z,9.00
2023-02-19T12:04:58.194Z,9.80
2023-02-19T12:07:49.355Z,8.85
2023-02-19T12:10:16.682Z,9.18
2023-02-19T12:12:49.872Z,11.52
2023-02-19T12:15:46.720Z,12.15
2023-02-19T12:18:33.939Z,11.10
2023-02-19T12:21:21.807Z,13.10
2023-02-19T12:23:54.915Z,11.23
2023-02-19T12:26:28.889Z,11.93
2023-02-19T12:29:02.452Z,12.25
2023-02-19T12:31:33.028Z,13.40
2023-02-19T12:34:18.884Z,13.02
2023-02-19T12:37:09.388Z,12.82
2023-02-19T12:39:45.434Z,12.18
2023-02-19T12:42:15.461Z,12.55
2023-02-19T12:44:52.835Z,12.70
2023-02-19T12:47:21.676Z,13.25
2023-02-19T12:50:09.059Z,13.52
2023-02-19T12:52:40.970Z,12.55
2023-02-19T12:55:31.674Z,11.57
2023-02-19T12:58:01.435Z,26.45
2023-02-19T13:00:40.818Z,42.42
2023-02-19T13:03:28.255Z,32.00
2023-02-19T13:06:04.468Z,137.82
2023-02-19T13:08:34.820Z,105.97
2023-02-19T13:11:10.127Z,122.05
2023-02-19T13:13:42.355Z,117.70
2023-02-19T13:16:15.021Z,108.50
2023-02-19T13:18:46.078Z,95.88
2023-02-19T13:21:35.304Z,91.75
2023-02-19T13:24:07.393Z,84.05
2023-02-19T13:26:57.578Z,79.60
2023-02-19T13:29:43.336Z,89.03
2023-02-19T13:32:28.684Z,119.55
2023-02-19T13:35:19.126Z,138.40
2023-02-19T13:37:46.731Z,244.07
2023-02-19T13:40:25.975Z,243.50
2023-02-19T13:42:54.866Z,201.80
2023-02-19T13:45:48.391Z,183.30
2023-02-19T13:48:25.475Z,173.70
2023-02-19T13:51:12.882Z,171.23
2023-02-19T13:53:45.920Z,231.45
2023-02-19T13:56:33.824Z,251.55
2023-02-19T13:59:12.954Z,262.73
2023-02-19T14:01:52.096Z,210.52
2023-02-19T14:04:24.027Z,213.57
2023-02-19T14:07:06.359Z,194.73
2023-02-19T14:09:39.442Z,201.82
2023-02-19T14:12:06.666Z,198.23
2023-02-19T14:14:41.333Z,189.50
2023-02-19T14:17:17.525Z,250.07
2023-02-19T14:19:49.862Z,342.23
2023-02-19T14:22:35.768Z,344.88
2023-02-19T14:25:04.863Z,317.58
2023-02-19T14:27:32.229Z,306.15
2023-02-19T14:29:59.561Z,298.02
2023-02-19T14:32:26.876Z,286.60
2023-02-19T14:34:54.013Z,285.02
2023-02-19T14:37:22.286Z,270.85
2023-02-19T14:39:52.164Z,288.33
2023-02-19T14:42:23.497Z,299.10
2023-02-19T14:44:57.153Z,329.70
2023-02-19T14:47:25.492Z,341.77
2023-02-19T14:50:03.705Z,312.92
2023-02-19T14:52:36.609Z,300.17
2023-02-19T14:55:06.621Z,305.90
2023-02-19T14:57:38.888Z,290.27
2023-02-19T15:00:22.388Z,282.65
2023-02-19T15:02:51.184Z,286.08
2023-02-19T15:05:19.142Z,275.70
2023-02-19T15:07:46.425Z,265.52
2023-02-19T15:10:15.109Z,274.27
2023-02-19T15:12:47.198Z,268.38
2023-02-19T15:15:34.975Z,261.73
2023-02-19T15:18:02.470Z,246.55
2023-02-19T15:20:31.773Z,244.80
2023-02-19T15:23:00.054Z,247.48
2023-02-19T15:25:32.971Z,234.48
2023-02-19T15:28:18.693Z,235.45
2023-02-19T15:30:45.827Z,225.57
2023-02-19T15:33:17.748Z,239.30
2023-02-19T15:35:49.472Z,228.90
2023-02-19T15:38:16.780Z,207.88
2023-02-19T15:40:47.772Z,212.95
2023-02-19T15:43:33.770Z,205.82
2023-02-19T15:46:07.359Z,193.18
2023-02-19T15:48:40.892Z,202.23
2023-02-19T15:51:12.222Z,180.98
2023-02-19T15:53:44.065Z,197.30
2023-02-19T15:56:17.244Z,194.90
2023-02-19T15:58:44.454Z,196.32
2023-02-19T16:01:17.337Z,192.13
2023-02-19T16:03:44.713Z,177.10
2023-02-19T16:06:16.601Z,183.98
2023-02-19T16:08:44.970Z,176.93
2023-02-19T16:11:24.208Z,171.35
2023-02-19T16:13:52.137Z,176.18
2023-02-19T16:16:19.270Z,166.52
2023-02-19T16:18:47.618Z,175.15
2023-02-19T16:21:16.480Z,165.30
2023-02-19T16:23:44.670Z,159.18
2023-02-19T16:26:13.147Z,159.32
2023-02-19T16:28:41.662Z,154.70
2023-02-19T16:31:10.835Z,154.52
2023-02-19T16:33:38.113Z,155.52
2023-02-19T16:36:26.532Z,151.00
2023-02-19T16:39:00.939Z,147.70
2023-02-19T16:41:28.140Z,145.68
2023-02-19T16:43:55.273Z,137.05
2023-02-19T16:46:22.463Z,139.30
2023-02-19T16:48:49.994Z,139.13
2023-02-19T16:51:21.006Z,140.20
2023-02-19T16:53:48.216Z,144.63
2023-02-19T16:56:18.547Z,138.35
2023-02-19T16:58:45.751Z,137.73
2023-02-19T17:01:13.476Z,138.98
2023-02-19T17:03:40.946Z,136.75
2023-02-19T17:06:08.555Z,129.32
2023-02-19T17:08:37.541Z,133.02
2023-02-19T17:11:11.295Z,131.60
2023-02-19T17:13:38.752Z,124.68
2023-02-19T17:16:06.208Z,126.40
2023-02-19T17:18:33.577Z,120.57
2023-02-19T17:21:12.950Z,122.78
2023-02-19T17:23:40.419Z,121.32
2023-02-19T17:26:07.556Z,120.63
2023-02-19T17:28:34.714Z,115.25
2023-02-19T17:31:01.823Z,113.85
2023-02-19T17:33:28.983Z,112.38
2023-02-19T17:35:56.106Z,109.70
2023-02-19T17:38:23.286Z,107.15
2023-02-19T17:40:50.494Z,114.20
2023-02-19T17:43:17.685Z,108.97
2023-02-19T17:45:44.949Z,98.60
2023-02-19T17:48:15.447Z,101.80
2023-02-19T17:50:42.620Z,97.35
2023-02-19T17:53:10.082Z,106.05
2023-02-19T17:55:37.234Z,103.78
2023-02-19T17:58:04.432Z,101.07
2023-02-19T18:00:32.274Z,96.93
2023-02-19T18:02:59.438Z,98.38
2023-02-19T18:05:26.642Z,94.38
2023-02-19T18:07:53.835Z,93.72
2023-02-19T18:10:23.350Z,96.35
2023-02-19T18:12:50.704Z,93.75
2023-02-19T18:15:19.236Z,93.55
2023-02-19T18:17:46.816Z,91.47
2023-02-19T18:20:18.412Z,92.43
2023-02-19T18:22:45.585Z,89.93
2023-02-19T18:25:12.996Z,87.63
2023-02-19T18:27:40.126Z,88.07
2023-02-19T18:30:07.674Z,85.88
2023-02-19T18:32:34.898Z,87.57
2023-02-19T18:35:02.082Z,83.75
2023-02-19T18:37:33.911Z,84.22
2023-02-19T18:40:01.175Z,83.35
2023-02-19T18:42:28.363Z,82.85
2023-02-19T18:44:56.066Z,83.18
2023-02-19T18:47:25.326Z,80.18
2023-02-19T18:49:57.335Z,79.28
2023-02-19T18:52:25.789Z,77.10
2023-02-19T18:54:54.974Z,78.93
2023-02-19T18:57:23.067Z,79.13
2023-02-19T18:59:50.403Z,77.38
2023-02-19T19:02:17.905Z,77.13
2023-02-19T19:04:48.836Z,78.72
2023-02-19T19:07:16.062Z,75.95
2023-02-19T19:09:43.233Z,74.82
2023-02-19T19:12:10.429Z,74.30
2023-02-19T19:14:37.619Z,73.35
2023-02-19T19:17:05.125Z,71.15
2023-02-19T19:19:32.364Z,71.68
2023-02-19T19:21:59.528Z,71.22
2023-02-19T19:24:29.143Z,68.35
2023-02-19T19:26:56.261Z,68.90
2023-02-19T19:29:23.609Z,65.60
2023-02-19T19:31:51.246Z,65.78
2023-02-19T19:34:18.682Z,68.07
2023-02-19T19:36:46.259Z,64.80
2023-02-19T19:39:13.884Z,62.90
2023-02-19T19:41:41.122Z,66.60
2023-02-19T19:44:08.906Z,68.45
2023-02-19T19:46:36.247Z,68.72
2023-02-19T19:49:04.422Z,64.72
2023-02-19T19:51:32.483Z,61.75
2023-02-19T19:54:00.937Z,63.22
2023-02-19T19:56:28.124Z,64.82
2023-02-19T19:58:55.285Z,64.32
2023-02-19T20:01:23.280Z,65.95
2023-02-19T20:03:51.190Z,63.80
2023-02-19T20:06:28.981Z,64.43
2023-02-19T20:08:56.509Z,66.28
2023-02-19T20:11:24.119Z,62.97
2023-02-19T20:13:51.259Z,65.68
2023-02-19T20:16:24.063Z,64.72
2023-02-19T20:18:51.195Z,64.93
2023-02-19T20:21:18.345Z,62.75
2023-02-19T20:23:45.466Z,61.58
2023-02-19T20:26:12.669Z,60.97
2023-02-19T20:28:45.080Z,59.60
2023-02-19T20:31:12.656Z,60.03
2023-02-19T20:33:39.939Z,59.08
2023-02-19T20:36:07.419Z,58.42
2023-02-19T20:38:34.555Z,55.42
2023-02-19T20:41:01.699Z,55.88
2023-02-19T20:43:28.864Z,55.58
2023-02-19T20:45:56.029Z,54.25
2023-02-19T20:48:23.252Z,55.58
2023-02-19T20:50:50.391Z,53.80
2023-02-19T20:53:17.546Z,54.72
2023-02-19T20:55:44.730Z,52.08
2023-02-19T20:58:11.976Z,54.03
2023-02-19T21:00:39.122Z,52.25
2023-02-19T21:03:08.950Z,50.80
2023-02-19T21:05:37.067Z,51.75
2023-02-19T21:08:04.570Z,50.58
2023-02-19T21:10:31.973Z,50.80
2023-02-19T21:12:59.148Z,50.65
2023-02-19T21:15:26.259Z,48.85
2023-02-19T21:17:53.422Z,48.35
2023-02-19T21:20:20.874Z,47.88
2023-02-19T21:22:48.044Z,47.30
2023-02-19T21:25:15.238Z,48.90
2023-02-19T21:27:42.383Z,45.50
2023-02-19T21:30:09.753Z,44.78
2023-02-19T21:32:36.944Z,45.17
2023-02-19T21:35:04.171Z,46.13
2023-02-19T21:37:31.312Z,44.33
2023-02-19T21:40:00.315Z,43.20
2023-02-19T21:42:27.671Z,45.00
2023-02-19T21:44:54.809Z,43.63
2023-02-19T21:47:21.921Z,42.65
2023-02-19T21:49:49.126Z,40.25
2023-02-19T21:52:16.444Z,40.20
2023-02-19T21:54:43.990Z,40.42
2023-02-19T21:57:11.216Z,39.10
2023-02-19T21:59:39.610Z,37.88
2023-02-19T22:02:07.068Z,42.10
2023-02-19T22:04:34.229Z,39.47
2023-02-19T22:07:01.363Z,41.15
2023-02-19T22:09:28.563Z,40.03
2023-02-19T22:11:55.712Z,39.92
2023-02-19T22:14:23.015Z,39.08
2023-02-19T22:16:50.234Z,40.05
2023-02-19T22:19:17.389Z,38.85
2023-02-19T22:21:45.244Z,38.58
2023-02-19T22:24:19.515Z,39.38
2023-02-19T22:26:46.899Z,36.05
2023-02-19T22:29:14.980Z,36.05
2023-02-19T22:31:42.361Z,38.70
2023-02-19T22:34:09.775Z,35.92
2023-02-19T22:36:40.507Z,35.67
2023-02-19T22:39:08.778Z,37.72
2023-02-19T22:41:35.984Z,36.20
2023-02-19T22:44:03.148Z,35.17
2023-02-19T22:46:31.235Z,36.28
2023-02-19T22:48:59.166Z,35.53
2023-02-19T22:51:26.617Z,31.73
2023-02-19T22:53:55.321Z,35.42
2023-02-19T22:56:25.380Z,35.10
2023-02-19T22:58:53.054Z,34.92
2023-02-19T23:01:20.622Z,33.65
2023-02-19T23:03:49.025Z,33.75
2023-02-19T23:06:17.177Z,33.65
2023-02-19T23:08:44.453Z,34.55
2023-02-19T23:11:13.202Z,33.20
2023-02-19T23:13:43.513Z,32.55
2023-02-19T23:16:11.214Z,33.15
2023-02-19T23:18:38.919Z,31.83
2023-02-19T23:21:06.067Z,32.35
2023-02-19T23:23:33.358Z,31.63
2023-02-19T23:26:00.489Z,31.92
2023-02-19T23:28:27.660Z,30.77
2023-02-19T23:30:54.944Z,31.05
2023-02-19T23:33:22.142Z,31.05
2023-02-19T23:35:49.267Z,31.17
2023-02-19T23:38:16.386Z,29.20
2023-02-19T23:40:43.725Z,30.48
2023-02-19T23:43:10.911Z,29.88
2023-02-19T23:45:38.076Z,29.05
2023-02-19T23:48:05.260Z,30.70
2023-02-19T23:50:32.440Z,28.10
2023-02-19T23:52:59.706Z,30.17
2023-02-19T23:55:27.145Z,28.00
2023-02-19T23:57:54.329Z,29.58
